Time;durP1;ratioP1;P1;durP2;ratioP2;P2;SDS_P1;SDS_P2;PMS_P1;PMS_P2;Temp;Humidity;BMP_temperature;BMP_pressure;BME280_temperature;BME280_humidity;BME280_pressure;Samples;Min_cycle;Max_cycle;Signal;HPM_P1;HPM_P2
2023/04/26 00:02:10;;;;;;;4.68;3.22;;;6.50;99.90;;;;;;5057945;28;20202;-77
2023/04/26 00:04:36;;;;;;;7.20;3.83;;;6.50;99.90;;;;;;5056268;28;20223;-77
2023/04/26 00:07:02;;;;;;;4.30;3.38;;;6.50;99.90;;;;;;5047450;28;20204;-77
2023/04/26 00:09:28;;;;;;;5.82;3.35;;;6.50;99.90;;;;;;5047365;28;20176;-77
2023/04/26 00:11:54;;;;;;;3.75;3.45;;;6.50;99.90;;;;;;5054822;28;20172;-76
2023/04/26 00:14:19;;;;;;;4.80;3.15;;;6.40;99.90;;;;;;5047356;28;20190;-77
2023/04/26 00:16:45;;;;;;;3.35;3.10;;;6.30;99.90;;;;;;5043249;28;20612;-77
2023/04/26 00:19:11;;;;;;;3.60;3.30;;;6.30;99.90;;;;;;5031952;28;20608;-77
2023/04/26 00:21:37;;;;;;;4.32;3.22;;;6.20;99.90;;;;;;5054202;28;20561;-77
2023/04/26 00:24:04;;;;;;;3.40;3.15;;;6.20;99.90;;;;;;5045215;28;20237;-77
2023/04/26 00:26:30;;;;;;;4.97;3.85;;;6.20;99.90;;;;;;5049331;28;20555;-76
2023/04/26 00:28:56;;;;;;;4.63;3.63;;;6.20;99.90;;;;;;5046315;28;20655;-76
2023/04/26 00:31:22;;;;;;;4.00;3.53;;;6.10;99.90;;;;;;5044210;28;20180;-77
2023/04/26 00:33:47;;;;;;;4.85;3.80;;;6.10;99.90;;;;;;5044316;28;20174;-77
2023/04/26 00:36:14;;;;;;;5.47;4.18;;;6.00;99.90;;;;;;5047650;28;20242;-78
2023/04/26 00:38:40;;;;;;;4.18;3.50;;;5.90;99.90;;;;;;5037515;28;20180;-77
2023/04/26 00:41:05;;;;;;;3.90;3.42;;;5.80;99.90;;;;;;5055089;28;20175;-77
2023/04/26 00:43:31;;;;;;;6.43;4.18;;;5.80;99.90;;;;;;5053570;28;20254;-77
2023/04/26 00:45:57;;;;;;;4.60;3.58;;;5.80;99.90;;;;;;5052250;28;20261;-77
2023/04/26 00:48:22;;;;;;;8.95;4.20;;;5.80;99.90;;;;;;5044556;28;20184;-77
2023/04/26 00:50:48;;;;;;;3.65;3.17;;;5.70;99.90;;;;;;5053976;28;20187;-77
2023/04/26 00:53:16;;;;;;;4.47;3.97;;;5.70;99.90;;;;;;5049667;28;20621;-77
2023/04/26 00:55:43;;;;;;;5.47;4.57;;;5.70;99.90;;;;;;5049412;28;20208;-77
2023/04/26 00:58:09;;;;;;;8.25;4.15;;;5.60;99.90;;;;;;5049989;28;20184;-77
2023/04/26 01:00:35;;;;;;;3.50;3.20;;;5.50;99.90;;;;;;5048629;28;20255;-76
2023/04/26 01:03:00;;;;;;;3.85;3.55;;;5.50;99.90;;;;;;5050030;28;20311;-77
2023/04/26 01:05:26;;;;;;;4.55;4.00;;;5.50;99.90;;;;;;5050145;28;20224;-76
2023/04/26 01:07:52;;;;;;;4.22;3.72;;;5.40;99.90;;;;;;5047903;28;20172;-77
2023/04/26 01:10:18;;;;;;;5.82;3.50;;;5.40;99.90;;;;;;5053129;28;20198;-78
2023/04/26 01:12:44;;;;;;;4.55;4.00;;;5.30;99.90;;;;;;5052057;28;20182;-78
2023/04/26 01:15:10;;;;;;;7.38;4.63;;;5.30;99.90;;;;;;5053204;28;20187;-77
2023/04/26 01:17:36;;;;;;;4.10;3.67;;;5.20;99.90;;;;;;5051313;28;20180;-76
2023/04/26 01:20:03;;;;;;;4.78;3.50;;;5.20;99.90;;;;;;5049002;28;20749;-76
2023/04/26 01:22:32;;;;;;;4.20;3.90;;;5.20;99.90;;;;;;5050052;28;20184;-76
2023/04/26 01:25:00;;;;;;;4.22;3.85;;;5.10;99.90;;;;;;5049030;28;20208;-76
2023/04/26 01:27:25;;;;;;;9.38;4.18;;;5.00;99.90;;;;;;5050610;28;20594;-77
2023/04/26 01:29:51;;;;;;;6.90;4.20;;;5.00;99.90;;;;;;5051306;28;20191;-76
2023/04/26 01:32:17;;;;;;;4.68;4.25;;;4.90;99.90;;;;;;5055732;28;20176;-76
2023/04/26 01:34:42;;;;;;;4.93;4.20;;;4.90;99.90;;;;;;5053569;28;20184;-76
2023/04/26 01:37:08;;;;;;;10.07;3.95;;;4.80;99.90;;;;;;5048885;28;20220;-76
2023/04/26 01:39:35;;;;;;;4.28;3.88;;;4.90;99.90;;;;;;5048218;28;20545;-76
2023/04/26 01:42:01;;;;;;;4.32;3.80;;;4.90;99.90;;;;;;5040190;28;20184;-77
2023/04/26 01:44:27;;;;;;;4.93;4.00;;;4.80;99.90;;;;;;5051712;28;20230;-76
2023/04/26 01:46:53;;;;;;;6.53;4.43;;;4.70;99.90;;;;;;5048033;28;20230;-76
2023/04/26 01:49:18;;;;;;;4.50;4.00;;;4.60;99.90;;;;;;5050947;28;20711;-76
2023/04/26 01:51:44;;;;;;;5.82;4.38;;;4.60;99.90;;;;;;5046453;28;20230;-76
2023/04/26 01:54:10;;;;;;;6.45;4.93;;;4.70;99.90;;;;;;5045002;28;20664;-76
2023/04/26 01:56:35;;;;;;;5.57;4.30;;;4.60;99.90;;;;;;5051480;28;20540;-76
2023/04/26 01:59:01;;;;;;;5.30;4.35;;;4.70;99.90;;;;;;5045509;28;20194;-76
2023/04/26 02:01:27;;;;;;;4.40;4.00;;;4.60;99.90;;;;;;5036772;28;20172;-75
2023/04/26 02:03:52;;;;;;;4.63;4.03;;;4.60;99.90;;;;;;5042875;28;20208;-75
2023/04/26 02:06:18;;;;;;;6.35;4.18;;;4.50;99.90;;;;;;5051188;28;20681;-75
2023/04/26 02:08:44;;;;;;;6.60;4.13;;;4.60;99.90;;;;;;5050318;28;20230;-76
2023/04/26 02:11:10;;;;;;;5.30;3.78;;;4.60;99.90;;;;;;5047486;28;20181;-76
2023/04/26 02:13:36;;;;;;;5.20;4.35;;;4.70;99.90;;;;;;5052592;28;20176;-76
2023/04/26 02:16:02;;;;;;;7.65;4.53;;;4.60;99.90;;;;;;5052353;28;20208;-76
2023/04/26 02:18:28;;;;;;;5.68;4.20;;;4.60;99.90;;;;;;5052395;28;20658;-76
2023/04/26 02:20:54;;;;;;;5.20;4.10;;;4.50;99.90;;;;;;5047973;28;20254;-76
2023/04/26 02:23:20;;;;;;;5.78;4.45;;;4.40;99.90;;;;;;5056011;28;20658;-76
2023/04/26 02:25:46;;;;;;;4.25;3.85;;;4.40;99.90;;;;;;5033738;28;20301;-76
2023/04/26 02:28:12;;;;;;;5.10;4.60;;;4.40;99.90;;;;;;5046185;28;20738;-76
2023/04/26 02:30:37;;;;;;;4.80;4.35;;;4.30;99.90;;;;;;5048452;28;20183;-76
2023/04/26 02:33:03;;;;;;;5.10;4.50;;;4.30;99.90;;;;;;5031154;28;20181;-76
2023/04/26 02:35:29;;;;;;;4.55;4.15;;;4.20;99.90;;;;;;5059006;28;20191;-76
2023/04/26 02:37:54;;;;;;;4.85;4.35;;;4.20;99.90;;;;;;5041280;28;20172;-76
2023/04/26 02:40:20;;;;;;;7.40;4.38;;;4.10;99.90;;;;;;5046994;28;20188;-76
2023/04/26 02:42:47;;;;;;;4.43;4.10;;;3.90;99.90;;;;;;5049016;28;20236;-76
2023/04/26 02:45:13;;;;;;;5.30;4.47;;;3.90;99.90;;;;;;5051191;28;20235;-76
2023/04/26 02:47:39;;;;;;;4.90;4.40;;;3.90;99.90;;;;;;5048035;28;20203;-76
2023/04/26 02:50:06;;;;;;;7.00;4.63;;;3.80;99.90;;;;;;5043897;28;20228;-76
2023/04/26 02:52:32;;;;;;;5.25;4.85;;;3.80;99.90;;;;;;5048591;28;20200;-76
2023/04/26 02:54:58;;;;;;;7.13;4.97;;;3.70;99.90;;;;;;5045628;28;20188;-76
2023/04/26 02:57:23;;;;;;;5.20;4.38;;;3.70;99.90;;;;;;5035190;28;20206;-76
2023/04/26 02:59:49;;;;;;;6.28;4.55;;;3.70;99.90;;;;;;5052897;28;20191;-76
2023/04/26 03:02:15;;;;;;;5.05;4.55;;;3.70;99.90;;;;;;5030378;28;20675;-76
2023/04/26 03:04:41;;;;;;;5.97;4.68;;;3.70;99.90;;;;;;5054534;28;20293;-76
2023/04/26 03:07:06;;;;;;;4.03;3.72;;;3.80;99.90;;;;;;5053383;28;20319;-76
2023/04/26 03:09:33;;;;;;;6.70;4.60;;;3.80;99.90;;;;;;5031403;28;20278;-76
2023/04/26 03:11:59;;;;;;;5.97;4.18;;;3.80;99.90;;;;;;5047034;28;20176;-76
2023/04/26 03:14:25;;;;;;;4.50;4.10;;;3.70;99.90;;;;;;5049283;28;20218;-76
2023/04/26 03:16:52;;;;;;;5.25;4.35;;;3.70;99.90;;;;;;5034763;28;20563;-77
2023/04/26 03:19:17;;;;;;;6.65;4.40;;;3.60;99.90;;;;;;5045697;28;20180;-76
2023/04/26 03:21:43;;;;;;;6.75;5.10;;;3.60;99.90;;;;;;5040095;28;20233;-76
2023/04/26 03:24:08;;;;;;;5.38;4.68;;;3.50;99.90;;;;;;5052954;28;20236;-76
2023/04/26 03:26:34;;;;;;;6.10;4.50;;;3.40;99.90;;;;;;5039885;28;20258;-76
2023/04/26 03:29:00;;;;;;;5.03;4.40;;;3.40;99.90;;;;;;5041010;28;20577;-76
2023/04/26 03:31:26;;;;;;;6.80;4.95;;;3.40;99.90;;;;;;5044445;28;20190;-76
2023/04/26 03:33:51;;;;;;;5.97;4.90;;;3.40;99.90;;;;;;5051179;28;20168;-75
2023/04/26 03:36:18;;;;;;;5.45;4.60;;;3.50;99.90;;;;;;5050292;28;20290;-75
2023/04/26 03:38:43;;;;;;;4.90;4.43;;;3.60;99.90;;;;;;5045293;28;20222;-76
2023/04/26 03:41:09;;;;;;;6.05;4.32;;;3.60;99.90;;;;;;5042905;28;20196;-76
2023/04/26 03:43:34;;;;;;;5.50;4.82;;;3.50;99.90;;;;;;5042057;28;20184;-75
2023/04/26 03:46:00;;;;;;;6.03;4.70;;;3.50;99.90;;;;;;5047225;28;20262;-77
2023/04/26 03:48:26;;;;;;;6.63;4.53;;;3.40;99.90;;;;;;5048911;28;20226;-76
2023/04/26 03:50:52;;;;;;;6.18;5.10;;;3.50;99.90;;;;;;5050061;28;20211;-76
2023/04/26 03:53:17;;;;;;;5.28;4.65;;;3.50;99.90;;;;;;5034055;28;20555;-77
2023/04/26 03:55:43;;;;;;;4.78;4.38;;;3.40;99.90;;;;;;5036324;28;20192;-77
2023/04/26 03:58:09;;;;;;;4.90;4.35;;;3.40;99.90;;;;;;5044380;28;20651;-77
2023/04/26 04:00:41;;;;;;;8.70;5.07;;;3.40;99.90;;;;;;5039262;28;20215;-77
2023/04/26 04:03:07;;;;;;;7.95;5.13;;;3.40;99.90;;;;;;5045052;28;20226;-76
2023/04/26 04:05:32;;;;;;;5.43;4.85;;;3.30;99.90;;;;;;5049777;28;20344;-76
2023/04/26 04:07:58;;;;;;;8.40;4.93;;;3.20;99.90;;;;;;5042510;28;20192;-76
2023/04/26 04:10:24;;;;;;;9.27;5.22;;;3.20;99.90;;;;;;5046311;28;20191;-77
2023/04/26 04:12:51;;;;;;;5.38;4.88;;;3.30;99.90;;;;;;5043736;28;20184;-78
2023/04/26 04:15:18;;;;;;;6.03;4.80;;;3.20;99.90;;;;;;5027421;28;20207;-77
2023/04/26 04:17:43;;;;;;;6.20;4.90;;;3.10;99.90;;;;;;5046799;28;20196;-77
2023/04/26 04:20:10;;;;;;;5.07;4.57;;;3.20;99.90;;;;;;5042471;28;20242;-76
2023/04/26 04:22:35;;;;;;;7.63;5.70;;;3.30;99.90;;;;;;5046945;28;20246;-76
2023/04/26 04:25:03;;;;;;;4.78;4.38;;;3.30;99.90;;;;;;5027512;28;20208;-76
2023/04/26 04:27:29;;;;;;;6.72;5.18;;;3.30;99.90;;;;;;5049277;28;20536;-76
2023/04/26 04:29:55;;;;;;;6.70;5.35;;;3.30;99.90;;;;;;5049337;28;20171;-76
2023/04/26 04:32:22;;;;;;;8.52;5.03;;;3.40;99.90;;;;;;5044433;28;20180;-76
2023/04/26 04:34:50;;;;;;;5.35;4.50;;;3.40;99.90;;;;;;5039177;28;20664;-76
2023/04/26 04:37:15;;;;;;;5.38;4.78;;;3.40;99.90;;;;;;5040003;28;20200;-78
2023/04/26 04:39:41;;;;;;;5.13;4.50;;;3.40;99.90;;;;;;5037744;28;20192;-77
2023/04/26 04:42:07;;;;;;;7.90;5.22;;;3.40;99.90;;;;;;5040592;28;20274;-77
2023/04/26 04:44:32;;;;;;;6.25;4.55;;;3.50;99.90;;;;;;5044428;28;20655;-77
2023/04/26 04:46:58;;;;;;;5.60;4.95;;;3.60;99.90;;;;;;5050407;28;20200;-77
2023/04/26 04:49:24;;;;;;;7.63;5.25;;;3.70;99.90;;;;;;5050291;28;20575;-77
2023/04/26 04:51:50;;;;;;;9.07;6.47;;;3.80;99.90;;;;;;5051934;28;20238;-76
2023/04/26 04:54:17;;;;;;;5.60;5.00;;;3.90;99.90;;;;;;5046047;28;20262;-76
2023/04/26 04:56:43;;;;;;;9.07;5.82;;;4.00;99.90;;;;;;5031066;28;20672;-77
2023/04/26 04:59:10;;;;;;;6.32;5.72;;;4.10;99.90;;;;;;5051065;28;20181;-76
2023/04/26 05:01:37;;;;;;;5.80;5.30;;;4.20;99.90;;;;;;5045517;28;20184;-75
2023/04/26 05:04:03;;;;;;;7.60;5.38;;;4.40;99.90;;;;;;5050218;28;20181;-77
2023/04/26 05:06:30;;;;;;;6.88;5.40;;;4.50;99.90;;;;;;5044666;28;20279;-76
2023/04/26 05:08:56;;;;;;;6.60;5.05;;;4.60;99.90;;;;;;5033190;28;20180;-77
2023/04/26 05:11:22;;;;;;;5.32;4.75;;;4.70;99.90;;;;;;5049787;28;20225;-77
2023/04/26 05:13:48;;;;;;;7.80;5.32;;;4.80;99.90;;;;;;5043280;28;20192;-77
2023/04/26 05:16:14;;;;;;;5.43;4.93;;;4.90;99.90;;;;;;5045166;28;20204;-76
2023/04/26 05:18:40;;;;;;;6.00;4.30;;;5.10;99.90;;;;;;5046619;28;20258;-79
2023/04/26 05:21:06;;;;;;;6.10;4.97;;;5.20;99.90;;;;;;5054257;28;20241;-79
2023/04/26 05:23:33;;;;;;;5.15;4.70;;;5.30;99.90;;;;;;5047294;28;20655;-78
2023/04/26 05:26:01;;;;;;;6.13;4.22;;;5.60;99.90;;;;;;5049278;28;20203;-77
2023/04/26 05:28:27;;;;;;;7.82;4.93;;;5.70;99.90;;;;;;5056180;28;20237;-78
2023/04/26 05:30:53;;;;;;;5.45;4.38;;;5.80;99.90;;;;;;5054571;28;20172;-79
2023/04/26 05:33:18;;;;;;;7.72;4.57;;;5.90;99.90;;;;;;5035329;28;20213;-79
2023/04/26 05:35:44;;;;;;;6.07;4.40;;;6.10;99.90;;;;;;5048586;28;20236;-79
2023/04/26 05:38:10;;;;;;;6.38;4.78;;;6.10;99.90;;;;;;5051543;28;20191;-79
2023/04/26 05:40:36;;;;;;;7.28;4.45;;;6.20;99.90;;;;;;5054466;28;20183;-79
2023/04/26 05:43:01;;;;;;;5.28;4.68;;;6.30;99.90;;;;;;5055668;28;20202;-78
2023/04/26 05:45:27;;;;;;;7.78;4.78;;;6.50;99.90;;;;;;5051381;28;20227;-79
2023/04/26 05:47:53;;;;;;;6.28;3.90;;;6.70;99.90;;;;;;5054122;28;20246;-79
2023/04/26 05:50:18;;;;;;;5.35;4.63;;;6.70;99.90;;;;;;5049692;28;20187;-76
2023/04/26 05:52:44;;;;;;;5.65;4.43;;;6.80;99.90;;;;;;5042130;28;20180;-76
2023/04/26 05:55:09;;;;;;;7.53;4.28;;;6.80;99.90;;;;;;5040675;28;20180;-77
2023/04/26 05:57:35;;;;;;;6.28;4.25;;;6.90;99.90;;;;;;5049584;28;20176;-76
2023/04/26 06:00:04;;;;;;;6.68;4.05;;;6.90;99.90;;;;;;5048037;28;20278;-77
2023/04/26 06:02:29;;;;;;;6.22;4.88;;;7.00;99.90;;;;;;5050555;28;20183;-77
2023/04/26 06:04:55;;;;;;;6.60;4.30;;;7.20;99.90;;;;;;5041905;28;20225;-75
2023/04/26 06:07:21;;;;;;;6.32;4.38;;;7.10;99.90;;;;;;5046260;28;20256;-78
2023/04/26 06:09:47;;;;;;;6.80;3.50;;;7.20;99.90;;;;;;5033281;28;20176;-77
2023/04/26 06:12:13;;;;;;;4.10;3.70;;;7.40;99.90;;;;;;5037826;28;20179;-76
2023/04/26 06:14:38;;;;;;;7.93;3.83;;;7.40;99.90;;;;;;5044062;28;20184;-77
2023/04/26 06:17:04;;;;;;;4.00;3.42;;;7.50;99.90;;;;;;5040401;28;20223;-76
2023/04/26 06:19:30;;;;;;;6.13;3.67;;;7.60;99.90;;;;;;5046423;28;20176;-76
2023/04/26 06:21:56;;;;;;;4.45;3.38;;;7.80;99.90;;;;;;5045983;28;20279;-76
2023/04/26 06:24:23;;;;;;;5.18;3.30;;;8.00;99.90;;;;;;5045379;28;20176;-74
2023/04/26 06:26:49;;;;;;;4.28;3.88;;;8.30;99.90;;;;;;5049640;28;20303;-73
2023/04/26 06:29:14;;;;;;;4.15;3.15;;;8.40;99.90;;;;;;5047847;28;20268;-73
2023/04/26 06:31:40;;;;;;;4.88;3.33;;;8.70;99.90;;;;;;5045662;28;20183;-73
2023/04/26 06:34:06;;;;;;;6.72;3.50;;;8.90;99.90;;;;;;5050045;28;20193;-73
2023/04/26 06:36:32;;;;;;;4.47;3.22;;;9.10;99.90;;;;;;5032908;28;20203;-72
2023/04/26 06:38:57;;;;;;;5.78;4.05;;;9.30;99.90;;;;;;5043612;28;20238;-72
2023/04/26 06:41:23;;;;;;;5.35;3.10;;;9.50;99.90;;;;;;5049388;28;20486;-73
2023/04/26 06:43:48;;;;;;;3.85;3.55;;;9.30;99.90;;;;;;5047650;28;20182;-73
2023/04/26 06:46:14;;;;;;;5.03;3.58;;;9.20;99.90;;;;;;5047012;28;20226;-72
2023/04/26 06:48:39;;;;;;;3.28;3.05;;;9.40;99.90;;;;;;5041095;28;20209;-73
2023/04/26 06:51:07;;;;;;;6.47;3.20;;;9.70;99.90;;;;;;5046982;28;20671;-76
2023/04/26 06:53:33;;;;;;;5.40;2.90;;;9.80;99.90;;;;;;5048235;28;20175;-73
2023/04/26 06:55:59;;;;;;;3.60;2.78;;;9.90;99.90;;;;;;5050315;28;20207;-74
2023/04/26 06:58:24;;;;;;;4.95;3.17;;;10.00;99.70;;;;;;5046534;28;20218;-76
2023/04/26 07:00:50;;;;;;;5.55;3.08;;;9.90;99.90;;;;;;5048202;28;20176;-74
2023/04/26 07:03:16;;;;;;;4.55;2.60;;;9.80;99.90;;;;;;5041625;28;20184;-74
2023/04/26 07:05:41;;;;;;;2.83;2.63;;;9.90;99.90;;;;;;5041468;28;20220;-78
2023/04/26 07:08:07;;;;;;;3.28;2.42;;;10.10;98.10;;;;;;5049176;28;20195;-75
2023/04/26 07:10:33;;;;;;;2.42;2.20;;;10.10;97.00;;;;;;5043809;28;20278;-76
2023/04/26 07:12:59;;;;;;;4.22;2.90;;;10.30;96.50;;;;;;5049137;28;20536;-74
2023/04/26 07:15:25;;;;;;;3.67;2.38;;;10.40;95.80;;;;;;5049205;28;20206;-75
2023/04/26 07:17:50;;;;;;;2.45;2.25;;;10.40;96.60;;;;;;5044038;28;20565;-76
2023/04/26 07:20:19;;;;;;;4.18;2.13;;;10.50;93.50;;;;;;5048058;28;22938;-75
2023/04/26 07:22:45;;;;;;;4.82;2.55;;;10.20;94.40;;;;;;5042561;28;20184;-77
2023/04/26 07:25:11;;;;;;;2.10;1.90;;;10.10;96.20;;;;;;5027780;28;20215;-75
2023/04/26 07:27:37;;;;;;;1.95;1.85;;;10.40;95.70;;;;;;5046542;28;20636;-74
2023/04/26 07:30:04;;;;;;;2.53;2.30;;;10.30;93.30;;;;;;5044703;28;20654;-74
2023/04/26 07:32:29;;;;;;;4.22;2.30;;;10.10;94.00;;;;;;5042497;28;20179;-74
2023/04/26 07:34:55;;;;;;;3.63;2.00;;;9.80;94.80;;;;;;5048324;28;20188;-74
2023/04/26 07:37:21;;;;;;;3.25;2.10;;;9.80;94.30;;;;;;5048241;28;20199;-74
2023/04/26 07:39:46;;;;;;;2.65;2.08;;;9.60;94.70;;;;;;5046728;28;20183;-74
2023/04/26 07:42:12;;;;;;;2.67;2.47;;;9.50;94.90;;;;;;5044742;28;20542;-74
2023/04/26 07:44:37;;;;;;;2.67;2.00;;;9.40;96.70;;;;;;5049686;28;20252;-74
2023/04/26 07:47:03;;;;;;;2.33;2.10;;;9.30;95.70;;;;;;5051044;28;20714;-74
2023/04/26 07:49:28;;;;;;;2.70;2.50;;;9.40;97.90;;;;;;5049036;28;20256;-75
2023/04/26 07:51:55;;;;;;;2.72;2.13;;;9.50;96.80;;;;;;5047419;28;20183;-73
2023/04/26 07:54:20;;;;;;;5.47;3.20;;;9.40;97.30;;;;;;5048686;28;20171;-73
2023/04/26 07:56:46;;;;;;;2.40;2.20;;;9.40;97.40;;;;;;5050196;28;20202;-73
2023/04/26 07:59:12;;;;;;;4.03;2.20;;;9.50;93.50;;;;;;5050852;28;20184;-73
2023/04/26 08:01:37;;;;;;;2.03;1.92;;;9.30;92.80;;;;;;5048573;28;20250;-74
2023/04/26 08:04:04;;;;;;;2.33;2.17;;;9.20;93.60;;;;;;5047651;28;20214;-74
2023/04/26 08:06:30;;;;;;;3.55;2.50;;;9.20;94.90;;;;;;5047273;28;20199;-74
2023/04/26 08:08:55;;;;;;;2.50;2.15;;;9.20;97.60;;;;;;5040323;28;20172;-74
2023/04/26 08:11:21;;;;;;;3.05;2.65;;;9.40;93.60;;;;;;5048328;28;21402;-74
2023/04/26 08:13:47;;;;;;;6.10;2.58;;;9.50;95.10;;;;;;5049486;28;20194;-74
2023/04/26 08:16:13;;;;;;;2.50;2.30;;;9.60;95.30;;;;;;5048337;28;20203;-74
2023/04/26 08:18:39;;;;;;;3.60;2.30;;;9.70;94.80;;;;;;5048381;28;20665;-74
2023/04/26 08:21:05;;;;;;;2.38;2.08;;;9.80;93.30;;;;;;5050794;28;20192;-73
2023/04/26 08:23:35;;;;;;;3.10;2.20;;;9.70;92.30;;;;;;5054993;28;20185;-73
2023/04/26 08:26:01;;;;;;;3.35;2.55;;;9.70;91.70;;;;;;5055013;28;20204;-73
2023/04/26 08:28:26;;;;;;;2.42;2.22;;;9.80;92.30;;;;;;5046535;28;20675;-73
2023/04/26 08:30:52;;;;;;;2.83;1.95;;;9.90;91.00;;;;;;5054866;28;20262;-73
2023/04/26 08:33:18;;;;;;;3.03;2.03;;;9.90;90.50;;;;;;5052240;28;20172;-73
2023/04/26 08:35:43;;;;;;;2.40;2.13;;;10.10;91.80;;;;;;5048510;28;20200;-74
2023/04/26 08:38:09;;;;;;;3.30;2.55;;;10.40;90.40;;;;;;5050846;28;20176;-74
2023/04/26 08:40:35;;;;;;;3.63;2.45;;;10.70;91.00;;;;;;5035091;28;20190;-74
2023/04/26 08:43:01;;;;;;;2.83;2.33;;;11.10;90.80;;;;;;5051374;28;20205;-74
2023/04/26 08:45:26;;;;;;;2.63;2.42;;;11.60;88.70;;;;;;5058465;28;20204;-76
2023/04/26 08:47:57;;;;;;;3.33;2.05;;;11.70;84.10;;;;;;5052893;28;20219;-74
2023/04/26 08:50:23;;;;;;;3.35;2.15;;;11.40;86.90;;;;;;5052277;28;20290;-74
2023/04/26 08:52:50;;;;;;;3.95;2.88;;;11.50;89.70;;;;;;5050469;28;20804;-74
2023/04/26 08:55:17;;;;;;;2.80;2.35;;;11.60;81.00;;;;;;5045912;28;20192;-74
2023/04/26 08:57:45;;;;;;;3.35;2.40;;;11.50;83.40;;;;;;5050138;28;20192;-74
2023/04/26 09:00:12;;;;;;;3.78;2.50;;;11.60;84.40;;;;;;5051426;28;20207;-77
2023/04/26 09:02:41;;;;;;;2.28;2.08;;;11.80;81.20;;;;;;5049722;28;20175;-74
2023/04/26 09:05:08;;;;;;;3.60;2.28;;;12.30;81.70;;;;;;5050640;28;20678;-74
2023/04/26 09:07:41;;;;;;;3.30;2.30;;;12.50;78.10;;;;;;5054810;28;20203;-75
2023/04/26 09:10:07;;;;;;;4.95;2.22;;;11.80;79.80;;;;;;5046286;28;20181;-75
2023/04/26 09:12:33;;;;;;;2.83;2.28;;;11.60;77.00;;;;;;5053600;28;20185;-73
2023/04/26 09:15:00;;;;;;;3.00;2.20;;;11.70;75.30;;;;;;5057057;28;20684;-75
2023/04/26 09:17:37;;;;;;;3.92;2.30;;;11.60;76.60;;;;;;5050161;28;20257;-74
2023/04/26 09:20:28;;;;;;;2.30;2.05;;;11.90;76.10;;;;;;5034447;28;20286;-74
2023/04/26 09:23:06;;;;;;;2.45;2.25;;;15.40;79.90;;;;;;5054803;28;20175;-74
2023/04/26 09:25:32;;;;;;;2.05;1.67;;;17.50;60.90;;;;;;5054257;28;20202;-76
2023/04/26 09:27:59;;;;;;;3.28;1.73;;;16.20;58.70;;;;;;5050351;28;20263;-76
2023/04/26 09:30:26;;;;;;;3.20;1.83;;;15.50;58.90;;;;;;5053763;28;20617;-81
2023/04/26 09:32:53;;;;;;;2.03;1.88;;;15.40;60.20;;;;;;5054067;28;20188;-77
2023/04/26 09:35:37;;;;;;;1.70;1.60;;;15.60;61.70;;;;;;5052357;28;20249;-78
2023/04/26 09:38:05;;;;;;;2.08;1.77;;;18.80;54.20;;;;;;5053445;28;20633;-76
2023/04/26 09:40:45;;;;;;;3.42;1.70;;;20.70;53.30;;;;;;5036482;28;20240;-76
2023/04/26 09:43:13;;;;;;;2.38;2.08;;;21.40;47.00;;;;;;5046233;28;20180;-76
2023/04/26 09:45:49;;;;;;;2.60;1.83;;;20.00;48.30;;;;;;5053259;28;20279;-77
2023/04/26 09:48:21;;;;;;;2.03;1.70;;;20.90;47.40;;;;;;5033802;28;20180;-77
2023/04/26 09:50:49;;;;;;;2.25;1.98;;;20.90;47.40;;;;;;5047426;28;20648;-82
2023/04/26 09:53:33;;;;;;;1.73;1.60;;;21.40;46.70;;;;;;5055990;28;20196;-78
2023/04/26 09:56:14;;;;;;;1.60;1.50;;;23.10;46.90;;;;;;5050221;28;20222;-77
2023/04/26 09:58:59;;;;;;;2.20;2.00;;;23.30;41.10;;;;;;5051926;28;20554;-77
2023/04/26 10:01:28;;;;;;;1.95;1.52;;;20.50;45.70;;;;;;5061737;28;20178;-79
2023/04/26 10:04:00;;;;;;;2.95;2.03;;;19.10;46.90;;;;;;5054523;28;20195;-78
2023/04/26 10:06:27;;;;;;;1.75;1.65;;;17.90;48.80;;;;;;5055127;28;20211;-79
2023/04/26 10:08:53;;;;;;;2.22;2.03;;;16.90;49.10;;;;;;5040253;28;20184;-77
2023/04/26 10:11:20;;;;;;;2.95;2.00;;;18.90;46.90;;;;;;5051754;28;20191;-78
2023/04/26 10:13:50;;;;;;;3.15;1.75;;;18.40;47.10;;;;;;5036506;28;20183;-79
2023/04/26 10:16:16;;;;;;;3.78;1.85;;;16.40;47.00;;;;;;5054962;28;20230;-79
2023/04/26 10:18:41;;;;;;;6.13;1.95;;;15.40;49.20;;;;;;5049786;28;20716;-78
2023/04/26 10:21:16;;;;;;;2.45;2.17;;;15.20;51.90;;;;;;5040750;28;20210;-79
2023/04/26 10:23:42;;;;;;;3.13;1.95;;;16.20;50.40;;;;;;5040950;28;20482;-79
2023/04/26 10:26:48;;;;;;;1.60;1.50;;;18.70;46.60;;;;;;5050334;28;20668;-77
2023/04/26 10:29:15;;;;;;;3.03;1.80;;;22.10;44.60;;;;;;5056708;28;20175;-76
2023/04/26 10:31:59;;;;;;;1.88;1.60;;;24.90;39.50;;;;;;5057038;28;20381;-74
2023/04/26 10:34:25;;;;;;;3.53;1.88;;;23.00;39.20;;;;;;5041075;28;20186;-74
2023/04/26 10:37:13;;;;;;;4.90;2.05;;;21.50;43.30;;;;;;5054543;28;20196;-74
2023/04/26 10:39:40;;;;;;;1.83;1.73;;;19.90;43.00;;;;;;5048204;28;20176;-74
2023/04/26 10:42:29;;;;;;;2.55;1.85;;;18.00;46.60;;;;;;5051488;28;20187;-74
2023/04/26 10:44:57;;;;;;;3.47;2.13;;;17.20;47.80;;;;;;5051876;28;20370;-75
2023/04/26 10:47:30;;;;;;;3.85;1.70;;;18.30;46.90;;;;;;5040604;28;20211;-74
2023/04/26 10:50:09;;;;;;;3.25;2.08;;;19.80;48.50;;;;;;5049182;28;20183;-75
2023/04/26 10:53:02;;;;;;;2.92;1.90;;;21.20;46.50;;;;;;5050861;28;20171;-75
2023/04/26 10:55:38;;;;;;;1.67;1.58;;;21.80;42.90;;;;;;5050508;28;20253;-74
2023/04/26 10:58:25;;;;;;;2.75;1.70;;;20.30;44.90;;;;;;5039102;28;20251;-74
2023/04/26 11:01:16;;;;;;;2.35;1.88;;;19.70;44.40;;;;;;5051850;28;20274;-75
2023/04/26 11:04:02;;;;;;;1.80;1.70;;;18.80;46.80;;;;;;5021016;28;20193;-75
2023/04/26 11:06:46;;;;;;;3.75;1.95;;;18.40;46.00;;;;;;5030448;28;20280;-75
2023/04/26 11:09:41;;;;;;;2.63;2.00;;;20.20;43.60;;;;;;5048572;28;20188;-75
2023/04/26 11:12:11;;;;;;;2.40;1.55;;;20.90;46.20;;;;;;5046463;28;20194;-75
2023/04/26 11:14:37;;;;;;;3.08;1.98;;;21.40;43.30;;;;;;5049376;28;20847;-74
2023/04/26 11:17:10;;;;;;;2.40;2.00;;;20.00;43.80;;;;;;5046483;28;20208;-75
2023/04/26 11:19:36;;;;;;;2.35;2.00;;;18.40;45.20;;;;;;5044017;28;20226;-74
2023/04/26 11:22:02;;;;;;;2.80;2.08;;;17.60;46.00;;;;;;5050384;28;20686;-75
2023/04/26 11:24:32;;;;;;;2.00;1.88;;;17.50;47.80;;;;;;5051172;28;20186;-74
2023/04/26 11:26:58;;;;;;;1.70;1.60;;;18.20;47.60;;;;;;5047953;28;20574;-74
2023/04/26 11:29:24;;;;;;;5.38;2.10;;;17.70;47.80;;;;;;5049202;28;20224;-76
2023/04/26 11:31:54;;;;;;;2.90;1.95;;;16.70;48.20;;;;;;5042314;28;20616;-75
2023/04/26 11:34:34;;;;;;;2.05;1.80;;;16.40;49.20;;;;;;5052972;28;20175;-74
2023/04/26 11:37:03;;;;;;;1.80;1.70;;;15.70;49.00;;;;;;5046405;28;20682;-75
2023/04/26 11:39:36;;;;;;;2.40;1.88;;;15.80;48.70;;;;;;5049742;28;20545;-75
2023/04/26 11:42:08;;;;;;;1.75;1.65;;;15.90;48.90;;;;;;5049615;28;20191;-75
2023/04/26 11:44:34;;;;;;;2.10;1.90;;;17.40;47.80;;;;;;5047498;28;20179;-75
2023/04/26 11:47:04;;;;;;;1.73;1.63;;;17.20;47.80;;;;;;5044429;28;20551;-76
2023/04/26 11:49:35;;;;;;;1.92;1.83;;;16.50;50.40;;;;;;5047485;28;20247;-75
2023/04/26 11:52:05;;;;;;;6.03;1.98;;;16.10;48.60;;;;;;5046175;28;20180;-75
2023/04/26 11:54:33;;;;;;;1.92;1.60;;;16.30;48.80;;;;;;5045683;28;20179;-76
2023/04/26 11:56:58;;;;;;;3.10;1.92;;;16.50;48.80;;;;;;5051809;28;20279;-75
2023/04/26 11:59:29;;;;;;;3.22;1.90;;;17.20;47.40;;;;;;5033028;28;20723;-75
2023/04/26 12:01:56;;;;;;;2.40;1.73;;;17.70;45.70;;;;;;5050980;28;20176;-76
2023/04/26 12:04:30;;;;;;;2.17;1.83;;;16.40;48.90;;;;;;5050002;28;20182;-75
2023/04/26 12:06:57;;;;;;;1.90;1.80;;;16.20;48.60;;;;;;5024298;28;20196;-75
2023/04/26 12:09:30;;;;;;;2.97;1.90;;;17.60;48.40;;;;;;5042272;28;20577;-75
2023/04/26 12:12:01;;;;;;;2.83;1.77;;;19.00;45.40;;;;;;5052614;28;20263;-75
2023/04/26 12:14:33;;;;;;;2.10;1.90;;;18.50;46.20;;;;;;5045592;28;20176;-75
2023/04/26 12:17:03;;;;;;;2.30;2.10;;;18.00;47.20;;;;;;5051315;28;20677;-74
2023/04/26 12:19:33;;;;;;;3.45;2.05;;;18.10;48.00;;;;;;5034366;28;20642;-75
2023/04/26 12:21:58;;;;;;;2.00;1.85;;;18.90;46.80;;;;;;5047999;28;20227;-74
2023/04/26 12:24:29;;;;;;;2.13;1.98;;;18.70;48.20;;;;;;5050012;28;20211;-74
2023/04/26 12:26:54;;;;;;;3.17;1.80;;;19.10;46.10;;;;;;5051205;28;20218;-75
2023/04/26 12:29:20;;;;;;;3.03;1.60;;;18.80;46.60;;;;;;5049077;28;20168;-75
2023/04/26 12:31:46;;;;;;;2.10;1.90;;;18.30;46.50;;;;;;5051939;28;20195;-75
2023/04/26 12:34:12;;;;;;;2.20;1.83;;;18.60;45.50;;;;;;5049276;28;20183;-75
2023/04/26 12:36:43;;;;;;;2.13;1.92;;;17.60;46.70;;;;;;5050766;28;20214;-76
2023/04/26 12:39:14;;;;;;;1.80;1.67;;;16.50;48.90;;;;;;5047227;28;20270;-75
2023/04/26 12:41:41;;;;;;;2.75;1.85;;;16.40;48.90;;;;;;5032962;28;20218;-74
2023/04/26 12:44:10;;;;;;;2.90;2.30;;;17.40;48.00;;;;;;5049469;28;20216;-75
2023/04/26 12:46:36;;;;;;;2.17;1.98;;;17.90;47.30;;;;;;5055075;28;20203;-74
2023/04/26 12:49:02;;;;;;;2.22;1.80;;;18.70;45.90;;;;;;5046023;28;20553;-74
2023/04/26 12:51:28;;;;;;;2.28;1.88;;;19.40;46.20;;;;;;5045025;28;20186;-74
2023/04/26 12:53:54;;;;;;;3.00;1.88;;;20.50;42.90;;;;;;5047468;28;20188;-75
2023/04/26 12:56:20;;;;;;;2.92;2.10;;;20.40;45.70;;;;;;5029614;28;20203;-75